sensor_id;sensor_type;location;lat;lon;timestamp;P1;durP1;ratioP1;P2;durP2;ratioP2
42364;SDS011;28498;54.400;18.566;2023-05-19T00:01:18;8.02;;;3.00;;
42364;SDS011;28498;54.400;18.566;2023-05-19T00:03:49;8.60;;;3.10;;
42364;SDS011;28498;54.400;18.566;2023-05-19T00:06:21;7.38;;;3.20;;
42364;SDS011;28498;54.400;18.566;2023-05-19T00:08:53;8.35;;;2.50;;
42364;SDS011;28498;54.400;18.566;2023-05-19T00:11:24;4.82;;;2.50;;
42364;SDS011;28498;54.400;18.566;2023-05-19T00:13:52;6.75;;;2.65;;
42364;SDS011;28498;54.400;18.566;2023-05-19T00:16:20;6.28;;;2.53;;
42364;SDS011;28498;54.400;18.566;2023-05-19T00:18:48;5.85;;;2.47;;
42364;SDS011;28498;54.400;18.566;2023-05-19T00:21:17;5.97;;;2.22;;
42364;SDS011;28498;54.400;18.566;2023-05-19T00:23:44;4.63;;;2.30;;
42364;SDS011;28498;54.400;18.566;2023-05-19T00:26:11;6.05;;;2.22;;
42364;SDS011;28498;54.400;18.566;2023-05-19T00:28:38;5.93;;;2.50;;
42364;SDS011;28498;54.400;18.566;2023-05-19T00:31:05;5.80;;;2.10;;
42364;SDS011;28498;54.400;18.566;2023-05-19T00:33:32;4.25;;;2.35;;
42364;SDS011;28498;54.400;18.566;2023-05-19T00:36:00;5.65;;;2.13;;
42364;SDS011;28498;54.400;18.566;2023-05-19T00:38:31;6.57;;;3.58;;
42364;SDS011;28498;54.400;18.566;2023-05-19T00:41:00;8.65;;;3.50;;
42364;SDS011;28498;54.400;18.566;2023-05-19T00:43:27;8.15;;;3.00;;
42364;SDS011;28498;54.400;18.566;2023-05-19T00:45:55;4.70;;;2.28;;
42364;SDS011;28498;54.400;18.566;2023-05-19T00:48:26;4.53;;;2.17;;
42364;SDS011;28498;54.400;18.566;2023-05-19T00:50:53;5.18;;;2.33;;
42364;SDS011;28498;54.400;18.566;2023-05-19T00:53:30;5.05;;;1.90;;
42364;SDS011;28498;54.400;18.566;2023-05-19T00:55:59;4.68;;;2.17;;
42364;SDS011;28498;54.400;18.566;2023-05-19T00:58:27;3.92;;;2.22;;
42364;SDS011;28498;54.400;18.566;2023-05-19T01:00:56;3.53;;;1.70;;
42364;SDS011;28498;54.400;18.566;2023-05-19T01:03:33;4.15;;;1.85;;
42364;SDS011;28498;54.400;18.566;2023-05-19T01:06:01;8.07;;;3.45;;
42364;SDS011;28498;54.400;18.566;2023-05-19T01:08:33;4.47;;;2.30;;
42364;SDS011;28498;54.400;18.566;2023-05-19T01:11:04;4.03;;;1.95;;
42364;SDS011;28498;54.400;18.566;2023-05-19T01:13:32;4.28;;;1.70;;
42364;SDS011;28498;54.400;18.566;2023-05-19T01:27:51;6.70;;;1.90;;
42364;SDS011;28498;54.400;18.566;2023-05-19T01:30:40;4.30;;;1.67;;
42364;SDS011;28498;54.400;18.566;2023-05-19T01:33:13;4.43;;;2.13;;
42364;SDS011;28498;54.400;18.566;2023-05-19T01:35:42;3.75;;;1.77;;
42364;SDS011;28498;54.400;18.566;2023-05-19T01:38:10;5.65;;;2.08;;
42364;SDS011;28498;54.400;18.566;2023-05-19T01:40:38;4.30;;;1.90;;
42364;SDS011;28498;54.400;18.566;2023-05-19T01:43:07;5.18;;;2.00;;
42364;SDS011;28498;54.400;18.566;2023-05-19T01:45:37;3.45;;;1.77;;
42364;SDS011;28498;54.400;18.566;2023-05-19T01:48:06;4.18;;;1.83;;
42364;SDS011;28498;54.400;18.566;2023-05-19T01:50:36;3.85;;;1.90;;
42364;SDS011;28498;54.400;18.566;2023-05-19T01:53:03;5.65;;;2.63;;
42364;SDS011;28498;54.400;18.566;2023-05-19T01:55:30;4.47;;;2.20;;
42364;SDS011;28498;54.400;18.566;2023-05-19T02:01:09;4.80;;;1.70;;
42364;SDS011;28498;54.400;18.566;2023-05-19T02:06:29;7.18;;;1.80;;
42364;SDS011;28498;54.400;18.566;2023-05-19T02:11:51;4.85;;;1.80;;
42364;SDS011;28498;54.400;18.566;2023-05-19T02:14:29;4.95;;;1.77;;
42364;SDS011;28498;54.400;18.566;2023-05-19T02:17:16;4.35;;;1.90;;
42364;SDS011;28498;54.400;18.566;2023-05-19T02:19:45;4.03;;;1.55;;
42364;SDS011;28498;54.400;18.566;2023-05-19T02:22:12;4.60;;;1.75;;
42364;SDS011;28498;54.400;18.566;2023-05-19T02:24:39;3.88;;;1.45;;
42364;SDS011;28498;54.400;18.566;2023-05-19T02:27:06;4.18;;;1.50;;
42364;SDS011;28498;54.400;18.566;2023-05-19T02:29:33;3.92;;;2.10;;
42364;SDS011;28498;54.400;18.566;2023-05-19T02:32:00;4.63;;;1.73;;
42364;SDS011;28498;54.400;18.566;2023-05-19T02:34:27;3.25;;;1.52;;
42364;SDS011;28498;54.400;18.566;2023-05-19T02:36:54;3.08;;;1.70;;
42364;SDS011;28498;54.400;18.566;2023-05-19T02:39:21;4.35;;;1.80;;
42364;SDS011;28498;54.400;18.566;2023-05-19T02:41:48;6.43;;;1.65;;
42364;SDS011;28498;54.400;18.566;2023-05-19T02:44:15;4.03;;;1.63;;
42364;SDS011;28498;54.400;18.566;2023-05-19T02:46:42;4.88;;;1.70;;
42364;SDS011;28498;54.400;18.566;2023-05-19T02:49:09;2.95;;;1.67;;
42364;SDS011;28498;54.400;18.566;2023-05-19T02:51:36;3.90;;;1.65;;
42364;SDS011;28498;54.400;18.566;2023-05-19T02:54:03;3.92;;;1.58;;
42364;SDS011;28498;54.400;18.566;2023-05-19T02:56:30;4.78;;;1.60;;
42364;SDS011;28498;54.400;18.566;2023-05-19T02:58:57;5.45;;;2.50;;
42364;SDS011;28498;54.400;18.566;2023-05-19T03:01:24;5.30;;;1.85;;
42364;SDS011;28498;54.400;18.566;2023-05-19T03:03:51;3.20;;;1.67;;
42364;SDS011;28498;54.400;18.566;2023-05-19T03:06:19;3.53;;;1.65;;
42364;SDS011;28498;54.400;18.566;2023-05-19T03:08:49;4.28;;;1.60;;
42364;SDS011;28498;54.400;18.566;2023-05-19T03:11:16;4.68;;;1.60;;
42364;SDS011;28498;54.400;18.566;2023-05-19T03:13:43;4.45;;;1.80;;
42364;SDS011;28498;54.400;18.566;2023-05-19T03:16:10;3.63;;;2.05;;
42364;SDS011;28498;54.400;18.566;2023-05-19T03:18:37;5.05;;;1.63;;
42364;SDS011;28498;54.400;18.566;2023-05-19T03:21:05;4.88;;;1.80;;
42364;SDS011;28498;54.400;18.566;2023-05-19T03:23:32;5.30;;;1.80;;
42364;SDS011;28498;54.400;18.566;2023-05-19T03:25:59;4.68;;;1.70;;
42364;SDS011;28498;54.400;18.566;2023-05-19T03:28:26;4.60;;;1.60;;
42364;SDS011;28498;54.400;18.566;2023-05-19T03:30:53;6.72;;;1.50;;
42364;SDS011;28498;54.400;18.566;2023-05-19T03:33:20;4.05;;;1.40;;
42364;SDS011;28498;54.400;18.566;2023-05-19T03:35:49;6.00;;;1.30;;
42364;SDS011;28498;54.400;18.566;2023-05-19T03:38:18;3.95;;;1.75;;
42364;SDS011;28498;54.400;18.566;2023-05-19T03:40:45;3.58;;;1.63;;
42364;SDS011;28498;54.400;18.566;2023-05-19T03:43:12;3.28;;;1.48;;
42364;SDS011;28498;54.400;18.566;2023-05-19T03:45:39;5.13;;;1.60;;
42364;SDS011;28498;54.400;18.566;2023-05-19T03:48:06;3.60;;;1.48;;
42364;SDS011;28498;54.400;18.566;2023-05-19T03:50:33;3.72;;;1.58;;
42364;SDS011;28498;54.400;18.566;2023-05-19T03:53:00;3.78;;;1.58;;
42364;SDS011;28498;54.400;18.566;2023-05-19T03:55:27;4.63;;;1.58;;
42364;SDS011;28498;54.400;18.566;2023-05-19T03:57:55;3.65;;;1.33;;
42364;SDS011;28498;54.400;18.566;2023-05-19T04:00:22;6.38;;;1.77;;
42364;SDS011;28498;54.400;18.566;2023-05-19T04:02:49;4.70;;;2.22;;
42364;SDS011;28498;54.400;18.566;2023-05-19T04:05:17;3.50;;;1.60;;
42364;SDS011;28498;54.400;18.566;2023-05-19T04:07:44;4.88;;;1.40;;
42364;SDS011;28498;54.400;18.566;2023-05-19T04:10:12;4.68;;;1.85;;
42364;SDS011;28498;54.400;18.566;2023-05-19T04:12:39;3.38;;;1.10;;
42364;SDS011;28498;54.400;18.566;2023-05-19T04:15:06;2.70;;;1.27;;
42364;SDS011;28498;54.400;18.566;2023-05-19T04:17:33;3.30;;;1.20;;
42364;SDS011;28498;54.400;18.566;2023-05-19T04:20:00;3.15;;;1.65;;
42364;SDS011;28498;54.400;18.566;2023-05-19T04:22:28;3.80;;;1.40;;
42364;SDS011;28498;54.400;18.566;2023-05-19T04:24:55;9.00;;;1.95;;
42364;SDS011;28498;54.400;18.566;2023-05-19T04:27:22;2.95;;;1.38;;
42364;SDS011;28498;54.400;18.566;2023-05-19T04:29:49;3.35;;;1.02;;
42364;SDS011;28498;54.400;18.566;2023-05-19T04:32:16;2.85;;;1.02;;
42364;SDS011;28498;54.400;18.566;2023-05-19T04:34:43;3.05;;;1.30;;
42364;SDS011;28498;54.400;18.566;2023-05-19T04:37:14;3.45;;;1.58;;
42364;SDS011;28498;54.400;18.566;2023-05-19T04:39:45;3.22;;;1.30;;
42364;SDS011;28498;54.400;18.566;2023-05-19T04:42:13;2.72;;;1.50;;
42364;SDS011;28498;54.400;18.566;2023-05-19T04:44:44;5.32;;;1.70;;
42364;SDS011;28498;54.400;18.566;2023-05-19T04:47:17;3.95;;;1.40;;
42364;SDS011;28498;54.400;18.566;2023-05-19T04:49:46;5.45;;;1.40;;
42364;SDS011;28498;54.400;18.566;2023-05-19T04:52:13;2.97;;;1.40;;
42364;SDS011;28498;54.400;18.566;2023-05-19T04:54:41;3.75;;;1.08;;
42364;SDS011;28498;54.400;18.566;2023-05-19T04:57:08;2.50;;;1.00;;
42364;SDS011;28498;54.400;18.566;2023-05-19T04:59:35;2.75;;;1.00;;
42364;SDS011;28498;54.400;18.566;2023-05-19T05:02:02;3.95;;;2.00;;
42364;SDS011;28498;54.400;18.566;2023-05-19T05:04:30;5.97;;;1.38;;
42364;SDS011;28498;54.400;18.566;2023-05-19T05:06:57;6.43;;;1.85;;
42364;SDS011;28498;54.400;18.566;2023-05-19T05:09:24;2.63;;;1.10;;
42364;SDS011;28498;54.400;18.566;2023-05-19T05:11:52;5.35;;;1.45;;
42364;SDS011;28498;54.400;18.566;2023-05-19T05:14:19;6.18;;;1.70;;
42364;SDS011;28498;54.400;18.566;2023-05-19T05:16:46;3.10;;;1.42;;
42364;SDS011;28498;54.400;18.566;2023-05-19T05:19:15;3.35;;;1.60;;
42364;SDS011;28498;54.400;18.566;2023-05-19T05:21:42;3.75;;;1.17;;
42364;SDS011;28498;54.400;18.566;2023-05-19T05:24:10;6.63;;;1.70;;
42364;SDS011;28498;54.400;18.566;2023-05-19T05:26:37;7.78;;;1.40;;
42364;SDS011;28498;54.400;18.566;2023-05-19T05:29:04;4.18;;;1.38;;
42364;SDS011;28498;54.400;18.566;2023-05-19T05:31:31;8.77;;;1.17;;
42364;SDS011;28498;54.400;18.566;2023-05-19T05:33:59;5.05;;;1.30;;
42364;SDS011;28498;54.400;18.566;2023-05-19T05:36:26;3.70;;;1.40;;
42364;SDS011;28498;54.400;18.566;2023-05-19T05:38:53;3.72;;;1.52;;
42364;SDS011;28498;54.400;18.566;2023-05-19T05:41:20;5.05;;;1.67;;
42364;SDS011;28498;54.400;18.566;2023-05-19T05:43:47;3.80;;;1.27;;
42364;SDS011;28498;54.400;18.566;2023-05-19T05:46:14;3.50;;;1.30;;
42364;SDS011;28498;54.400;18.566;2023-05-19T05:48:42;5.30;;;1.13;;
42364;SDS011;28498;54.400;18.566;2023-05-19T05:51:09;3.50;;;1.15;;
42364;SDS011;28498;54.400;18.566;2023-05-19T05:53:39;3.75;;;1.23;;
42364;SDS011;28498;54.400;18.566;2023-05-19T05:56:10;6.73;;;1.60;;
42364;SDS011;28498;54.400;18.566;2023-05-19T05:58:37;3.80;;;1.00;;
42364;SDS011;28498;54.400;18.566;2023-05-19T06:01:05;4.82;;;1.15;;
42364;SDS011;28498;54.400;18.566;2023-05-19T06:03:40;6.93;;;1.15;;
42364;SDS011;28498;54.400;18.566;2023-05-19T06:06:09;5.35;;;1.33;;
42364;SDS011;28498;54.400;18.566;2023-05-19T06:08:37;4.03;;;1.00;;
42364;SDS011;28498;54.400;18.566;2023-05-19T06:11:04;3.28;;;0.90;;
42364;SDS011;28498;54.400;18.566;2023-05-19T06:13:34;3.30;;;1.00;;
42364;SDS011;28498;54.400;18.566;2023-05-19T06:16:02;2.33;;;1.00;;
42364;SDS011;28498;54.400;18.566;2023-05-19T06:18:29;8.43;;;2.72;;
42364;SDS011;28498;54.400;18.566;2023-05-19T06:20:56;3.15;;;1.10;;
42364;SDS011;28498;54.400;18.566;2023-05-19T06:23:24;3.63;;;1.30;;
42364;SDS011;28498;54.400;18.566;2023-05-19T06:25:52;5.35;;;1.20;;
42364;SDS011;28498;54.400;18.566;2023-05-19T06:28:19;3.60;;;1.10;;
42364;SDS011;28498;54.400;18.566;2023-05-19T06:30:46;5.20;;;1.48;;
42364;SDS011;28498;54.400;18.566;2023-05-19T06:33:13;7.20;;;1.95;;
42364;SDS011;28498;54.400;18.566;2023-05-19T06:35:40;3.97;;;1.20;;
42364;SDS011;28498;54.400;18.566;2023-05-19T06:38:07;5.78;;;1.67;;
42364;SDS011;28498;54.400;18.566;2023-05-19T06:40:34;4.57;;;1.67;;
42364;SDS011;28498;54.400;18.566;2023-05-19T06:43:02;5.80;;;1.92;;
42364;SDS011;28498;54.400;18.566;2023-05-19T06:45:30;4.20;;;1.20;;
42364;SDS011;28498;54.400;18.566;2023-05-19T06:47:57;6.35;;;1.27;;
42364;SDS011;28498;54.400;18.566;2023-05-19T06:50:24;3.38;;;1.00;;
42364;SDS011;28498;54.400;18.566;2023-05-19T06:52:51;3.92;;;1.15;;
42364;SDS011;28498;54.400;18.566;2023-05-19T06:55:18;3.55;;;1.15;;
42364;SDS011;28498;54.400;18.566;2023-05-19T06:57:45;4.07;;;1.10;;
42364;SDS011;28498;54.400;18.566;2023-05-19T07:06:26;2.85;;;1.00;;
42364;SDS011;28498;54.400;18.566;2023-05-19T07:08:53;3.85;;;0.90;;
42364;SDS011;28498;54.400;18.566;2023-05-19T07:11:21;3.35;;;0.85;;
42364;SDS011;28498;54.400;18.566;2023-05-19T07:13:48;3.85;;;1.00;;
42364;SDS011;28498;54.400;18.566;2023-05-19T07:16:15;3.28;;;1.00;;
42364;SDS011;28498;54.400;18.566;2023-05-19T07:18:42;2.47;;;1.10;;
42364;SDS011;28498;54.400;18.566;2023-05-19T07:21:09;3.58;;;1.25;;
42364;SDS011;28498;54.400;18.566;2023-05-19T07:23:36;7.30;;;1.02;;
42364;SDS011;28498;54.400;18.566;2023-05-19T07:26:03;3.25;;;0.93;;
42364;SDS011;28498;54.400;18.566;2023-05-19T07:28:30;2.15;;;1.05;;
42364;SDS011;28498;54.400;18.566;2023-05-19T07:30:57;2.25;;;0.98;;
42364;SDS011;28498;54.400;18.566;2023-05-19T07:33:24;4.57;;;1.02;;
42364;SDS011;28498;54.400;18.566;2023-05-19T07:35:52;3.92;;;0.90;;
42364;SDS011;28498;54.400;18.566;2023-05-19T07:38:19;3.28;;;1.20;;
42364;SDS011;28498;54.400;18.566;2023-05-19T07:40:46;4.10;;;1.10;;
42364;SDS011;28498;54.400;18.566;2023-05-19T07:43:13;4.30;;;1.48;;
42364;SDS011;28498;54.400;18.566;2023-05-19T07:45:40;4.10;;;1.20;;
42364;SDS011;28498;54.400;18.566;2023-05-19T07:48:07;5.45;;;1.15;;
42364;SDS011;28498;54.400;18.566;2023-05-19T07:50:34;4.03;;;1.33;;
42364;SDS011;28498;54.400;18.566;2023-05-19T07:53:02;3.60;;;1.00;;
42364;SDS011;28498;54.400;18.566;2023-05-19T07:55:29;4.57;;;0.98;;
42364;SDS011;28498;54.400;18.566;2023-05-19T07:57:56;2.95;;;1.10;;
42364;SDS011;28498;54.400;18.566;2023-05-19T08:00:23;5.85;;;1.05;;
42364;SDS011;28498;54.400;18.566;2023-05-19T08:02:50;2.95;;;0.93;;
42364;SDS011;28498;54.400;18.566;2023-05-19T08:05:18;3.30;;;0.90;;
42364;SDS011;28498;54.400;18.566;2023-05-19T08:07:45;2.60;;;0.80;;
42364;SDS011;28498;54.400;18.566;2023-05-19T08:10:12;4.18;;;1.00;;
42364;SDS011;28498;54.400;18.566;2023-05-19T08:12:39;3.22;;;1.27;;
42364;SDS011;28498;54.400;18.566;2023-05-19T08:15:06;3.38;;;1.10;;
42364;SDS011;28498;54.400;18.566;2023-05-19T08:17:34;2.70;;;0.98;;
42364;SDS011;28498;54.400;18.566;2023-05-19T08:20:01;4.05;;;1.20;;
42364;SDS011;28498;54.400;18.566;2023-05-19T08:22:30;7.65;;;1.58;;
42364;SDS011;28498;54.400;18.566;2023-05-19T08:24:57;5.80;;;1.25;;
42364;SDS011;28498;54.400;18.566;2023-05-19T08:27:24;5.63;;;1.02;;
42364;SDS011;28498;54.400;18.566;2023-05-19T08:29:51;4.57;;;1.45;;
42364;SDS011;28498;54.400;18.566;2023-05-19T08:32:18;2.97;;;1.00;;
42364;SDS011;28498;54.400;18.566;2023-05-19T08:34:46;3.65;;;1.00;;
42364;SDS011;28498;54.400;18.566;2023-05-19T08:37:13;6.28;;;2.10;;
42364;SDS011;28498;54.400;18.566;2023-05-19T08:39:40;3.80;;;1.67;;
42364;SDS011;28498;54.400;18.566;2023-05-19T08:42:07;3.17;;;0.90;;
42364;SDS011;28498;54.400;18.566;2023-05-19T08:44:35;5.53;;;1.08;;
42364;SDS011;28498;54.400;18.566;2023-05-19T08:47:03;5.82;;;1.00;;
42364;SDS011;28498;54.400;18.566;2023-05-19T08:49:32;2.78;;;1.25;;
42364;SDS011;28498;54.400;18.566;2023-05-19T08:52:05;2.90;;;1.30;;
42364;SDS011;28498;54.400;18.566;2023-05-19T08:54:44;4.05;;;0.93;;
42364;SDS011;28498;54.400;18.566;2023-05-19T08:57:17;2.10;;;0.88;;
42364;SDS011;28498;54.400;18.566;2023-05-19T08:59:45;3.55;;;1.25;;
42364;SDS011;28498;54.400;18.566;2023-05-19T09:02:14;4.43;;;1.10;;
42364;SDS011;28498;54.400;18.566;2023-05-19T09:04:41;4.82;;;1.02;;
42364;SDS011;28498;54.400;18.566;2023-05-19T09:07:12;2.67;;;0.90;;
42364;SDS011;28498;54.400;18.566;2023-05-19T09:09:42;4.60;;;1.90;;
42364;SDS011;28498;54.400;18.566;2023-05-19T09:12:09;3.75;;;1.25;;
42364;SDS011;28498;54.400;18.566;2023-05-19T09:14:37;5.28;;;1.48;;
42364;SDS011;28498;54.400;18.566;2023-05-19T09:17:04;3.42;;;1.08;;
42364;SDS011;28498;54.400;18.566;2023-05-19T09:19:32;6.32;;;1.25;;
42364;SDS011;28498;54.400;18.566;2023-05-19T09:22:00;3.53;;;1.25;;
42364;SDS011;28498;54.400;18.566;2023-05-19T09:24:30;3.42;;;1.33;;
42364;SDS011;28498;54.400;18.566;2023-05-19T09:26:59;3.85;;;1.20;;
42364;SDS011;28498;54.400;18.566;2023-05-19T09:29:26;3.92;;;1.33;;
42364;SDS011;28498;54.400;18.566;2023-05-19T09:31:53;5.45;;;1.83;;
42364;SDS011;28498;54.400;18.566;2023-05-19T09:34:26;3.35;;;1.30;;
42364;SDS011;28498;54.400;18.566;2023-05-19T09:43:06;5.05;;;1.33;;
42364;SDS011;28498;54.400;18.566;2023-05-19T09:45:34;4.25;;;1.15;;
42364;SDS011;28498;54.400;18.566;2023-05-19T09:48:04;3.90;;;1.35;;
42364;SDS011;28498;54.400;18.566;2023-05-19T09:50:31;2.47;;;1.10;;
42364;SDS011;28498;54.400;18.566;2023-05-19T09:52:59;4.70;;;1.30;;
42364;SDS011;28498;54.400;18.566;2023-05-19T09:55:27;3.28;;;1.27;;
42364;SDS011;28498;54.400;18.566;2023-05-19T09:57:54;3.45;;;1.63;;
42364;SDS011;28498;54.400;18.566;2023-05-19T10:00:22;3.83;;;1.50;;
42364;SDS011;28498;54.400;18.566;2023-05-19T10:02:49;3.05;;;1.25;;
42364;SDS011;28498;54.400;18.566;2023-05-19T10:05:16;4.20;;;1.30;;
42364;SDS011;28498;54.400;18.566;2023-05-19T10:07:51;4.30;;;1.52;;
42364;SDS011;28498;54.400;18.566;2023-05-19T10:10:20;2.85;;;1.45;;
42364;SDS011;28498;54.400;18.566;2023-05-19T10:12:48;4.30;;;1.45;;
42364;SDS011;28498;54.400;18.566;2023-05-19T10:15:16;4.07;;;1.50;;
42364;SDS011;28498;54.400;18.566;2023-05-19T10:17:48;4.15;;;1.83;;
42364;SDS011;28498;54.400;18.566;2023-05-19T10:23:57;4.30;;;1.75;;
42364;SDS011;28498;54.400;18.566;2023-05-19T10:26:24;3.90;;;1.58;;
42364;SDS011;28498;54.400;18.566;2023-05-19T10:28:52;3.38;;;1.30;;
42364;SDS011;28498;54.400;18.566;2023-05-19T10:31:20;3.60;;;1.33;;
42364;SDS011;28498;54.400;18.566;2023-05-19T10:36:48;5.78;;;1.48;;
42364;SDS011;28498;54.400;18.566;2023-05-19T10:39:33;5.13;;;1.58;;
42364;SDS011;28498;54.400;18.566;2023-05-19T10:42:09;3.55;;;1.30;;
42364;SDS011;28498;54.400;18.566;2023-05-19T10:47:08;5.93;;;1.40;;
42364;SDS011;28498;54.400;18.566;2023-05-19T10:49:37;4.20;;;1.80;;
42364;SDS011;28498;54.400;18.566;2023-05-19T10:52:21;4.97;;;1.42;;
42364;SDS011;28498;54.400;18.566;2023-05-19T10:54:51;3.08;;;1.30;;
42364;SDS011;28498;54.400;18.566;2023-05-19T10:57:26;2.90;;;1.52;;
42364;SDS011;28498;54.400;18.566;2023-05-19T10:59:57;5.03;;;1.60;;
42364;SDS011;28498;54.400;18.566;2023-05-19T11:02:37;3.45;;;1.60;;
42364;SDS011;28498;54.400;18.566;2023-05-19T11:05:10;4.63;;;1.50;;
42364;SDS011;28498;54.400;18.566;2023-05-19T11:07:40;3.13;;;1.40;;
42364;SDS011;28498;54.400;18.566;2023-05-19T11:10:11;3.85;;;1.50;;
42364;SDS011;28498;54.400;18.566;2023-05-19T11:12:39;6.53;;;1.70;;
42364;SDS011;28498;54.400;18.566;2023-05-19T11:15:11;5.32;;;1.33;;
42364;SDS011;28498;54.400;18.566;2023-05-19T11:17:40;2.90;;;1.33;;
42364;SDS011;28498;54.400;18.566;2023-05-19T11:20:31;4.35;;;1.35;;
42364;SDS011;28498;54.400;18.566;2023-05-19T11:28:17;6.25;;;1.20;;
42364;SDS011;28498;54.400;18.566;2023-05-19T11:30:46;4.68;;;1.23;;
42364;SDS011;28498;54.400;18.566;2023-05-19T11:33:18;5.18;;;1.33;;
42364;SDS011;28498;54.400;18.566;2023-05-19T11:35:47;2.75;;;0.88;;
42364;SDS011;28498;54.400;18.566;2023-05-19T11:38:16;4.97;;;0.98;;
42364;SDS011;28498;54.400;18.566;2023-05-19T11:40:45;4.93;;;1.55;;
42364;SDS011;28498;54.400;18.566;2023-05-19T11:43:13;3.30;;;1.20;;
42364;SDS011;28498;54.400;18.566;2023-05-19T11:45:41;3.45;;;1.13;;
42364;SDS011;28498;54.400;18.566;2023-05-19T11:48:11;3.55;;;1.20;;
42364;SDS011;28498;54.400;18.566;2023-05-19T11:54:30;5.82;;;1.67;;
42364;SDS011;28498;54.400;18.566;2023-05-19T11:56:59;4.07;;;1.30;;
42364;SDS011;28498;54.400;18.566;2023-05-19T11:59:31;5.15;;;1.63;;
42364;SDS011;28498;54.400;18.566;2023-05-19T12:02:02;5.53;;;1.40;;
42364;SDS011;28498;54.400;18.566;2023-05-19T12:04:43;3.63;;;1.60;;
42364;SDS011;28498;54.400;18.566;2023-05-19T12:07:10;2.30;;;1.02;;
42364;SDS011;28498;54.400;18.566;2023-05-19T12:09:39;2.75;;;1.30;;
42364;SDS011;28498;54.400;18.566;2023-05-19T12:12:06;4.32;;;1.85;;
42364;SDS011;28498;54.400;18.566;2023-05-19T12:14:33;4.15;;;1.60;;
42364;SDS011;28498;54.400;18.566;2023-05-19T12:17:11;4.53;;;1.60;;
42364;SDS011;28498;54.400;18.566;2023-05-19T12:19:42;3.05;;;1.15;;
42364;SDS011;28498;54.400;18.566;2023-05-19T12:22:10;4.00;;;1.25;;
42364;SDS011;28498;54.400;18.566;2023-05-19T12:24:38;3.33;;;1.30;;
42364;SDS011;28498;54.400;18.566;2023-05-19T12:27:21;4.22;;;1.67;;
42364;SDS011;28498;54.400;18.566;2023-05-19T12:29:54;5.13;;;1.10;;
42364;SDS011;28498;54.400;18.566;2023-05-19T12:32:25;3.35;;;1.40;;
42364;SDS011;28498;54.400;18.566;2023-05-19T12:34:56;2.85;;;1.20;;
42364;SDS011;28498;54.400;18.566;2023-05-19T12:37:27;3.75;;;1.40;;
42364;SDS011;28498;54.400;18.566;2023-05-19T12:39:58;2.90;;;1.10;;
42364;SDS011;28498;54.400;18.566;2023-05-19T12:42:26;4.00;;;1.20;;
42364;SDS011;28498;54.400;18.566;2023-05-19T12:44:58;7.10;;;1.48;;
42364;SDS011;28498;54.400;18.566;2023-05-19T12:47:29;2.72;;;1.20;;
42364;SDS011;28498;54.400;18.566;2023-05-19T12:50:04;2.92;;;1.27;;
42364;SDS011;28498;54.400;18.566;2023-05-19T12:52:46;3.67;;;1.55;;
42364;SDS011;28498;54.400;18.566;2023-05-19T12:55:17;6.30;;;1.40;;
42364;SDS011;28498;54.400;18.566;2023-05-19T12:57:49;3.50;;;1.30;;
42364;SDS011;28498;54.400;18.566;2023-05-19T13:00:20;3.67;;;1.50;;
42364;SDS011;28498;54.400;18.566;2023-05-19T13:02:55;2.75;;;1.08;;
42364;SDS011;28498;54.400;18.566;2023-05-19T13:05:27;4.65;;;1.45;;
42364;SDS011;28498;54.400;18.566;2023-05-19T13:07:56;5.72;;;1.55;;
42364;SDS011;28498;54.400;18.566;2023-05-19T13:14:16;4.07;;;1.33;;
42364;SDS011;28498;54.400;18.566;2023-05-19T13:16:44;6.07;;;1.55;;
42364;SDS011;28498;54.400;18.566;2023-05-19T13:19:13;3.58;;;1.73;;
42364;SDS011;28498;54.400;18.566;2023-05-19T13:21:50;3.08;;;1.45;;
42364;SDS011;28498;54.400;18.566;2023-05-19T13:24:17;3.28;;;1.48;;
42364;SDS011;28498;54.400;18.566;2023-05-19T13:26:44;3.00;;;1.20;;
42364;SDS011;28498;54.400;18.566;2023-05-19T13:29:11;3.25;;;1.30;;
42364;SDS011;28498;54.400;18.566;2023-05-19T13:31:38;4.20;;;1.42;;
42364;SDS011;28498;54.400;18.566;2023-05-19T13:34:05;2.83;;;1.30;;
42364;SDS011;28498;54.400;18.566;2023-05-19T13:36:33;4.90;;;2.67;;
42364;SDS011;28498;54.400;18.566;2023-05-19T13:39:00;8.32;;;1.80;;
42364;SDS011;28498;54.400;18.566;2023-05-19T13:41:27;3.05;;;1.60;;
42364;SDS011;28498;54.400;18.566;2023-05-19T13:43:57;3.67;;;1.45;;
42364;SDS011;28498;54.400;18.566;2023-05-19T13:46:25;4.35;;;1.85;;
42364;SDS011;28498;54.400;18.566;2023-05-19T13:51:36;4.53;;;1.70;;
42364;SDS011;28498;54.400;18.566;2023-05-19T13:54:03;3.33;;;1.58;;
42364;SDS011;28498;54.400;18.566;2023-05-19T13:56:30;4.90;;;1.63;;
42364;SDS011;28498;54.400;18.566;2023-05-19T13:58:57;5.63;;;1.85;;
42364;SDS011;28498;54.400;18.566;2023-05-19T14:01:24;6.57;;;1.90;;
42364;SDS011;28498;54.400;18.566;2023-05-19T14:03:51;3.28;;;1.98;;
42364;SDS011;28498;54.400;18.566;2023-05-19T14:06:18;4.45;;;1.92;;
42364;SDS011;28498;54.400;18.566;2023-05-19T14:08:45;3.45;;;1.80;;
42364;SDS011;28498;54.400;18.566;2023-05-19T14:11:16;4.07;;;2.15;;
42364;SDS011;28498;54.400;18.566;2023-05-19T14:13:47;3.10;;;1.80;;
42364;SDS011;28498;54.400;18.566;2023-05-19T14:16:21;3.70;;;2.13;;
42364;SDS011;28498;54.400;18.566;2023-05-19T14:18:48;5.28;;;2.63;;
42364;SDS011;28498;54.400;18.566;2023-05-19T14:21:15;4.88;;;2.00;;
42364;SDS011;28498;54.400;18.566;2023-05-19T14:23:42;5.55;;;2.42;;
42364;SDS011;28498;54.400;18.566;2023-05-19T14:26:09;5.22;;;2.20;;
42364;SDS011;28498;54.400;18.566;2023-05-19T14:28:37;4.03;;;2.08;;
42364;SDS011;28498;54.400;18.566;2023-05-19T14:31:04;5.40;;;2.22;;
42364;SDS011;28498;54.400;18.566;2023-05-19T14:33:33;3.15;;;1.83;;
42364;SDS011;28498;54.400;18.566;2023-05-19T14:36:01;4.53;;;1.85;;
42364;SDS011;28498;54.400;18.566;2023-05-19T14:38:28;3.95;;;2.33;;
42364;SDS011;28498;54.400;18.566;2023-05-19T14:40:55;3.80;;;2.08;;
42364;SDS011;28498;54.400;18.566;2023-05-19T14:43:22;5.93;;;3.17;;
42364;SDS011;28498;54.400;18.566;2023-05-19T14:45:49;4.53;;;2.10;;
42364;SDS011;28498;54.400;18.566;2023-05-19T14:48:16;7.30;;;2.45;;
42364;SDS011;28498;54.400;18.566;2023-05-19T14:50:45;4.53;;;2.22;;
42364;SDS011;28498;54.400;18.566;2023-05-19T14:53:13;5.88;;;2.40;;
42364;SDS011;28498;54.400;18.566;2023-05-19T14:55:40;3.78;;;1.75;;
42364;SDS011;28498;54.400;18.566;2023-05-19T14:58:08;4.63;;;2.15;;
42364;SDS011;28498;54.400;18.566;2023-05-19T15:00:52;4.03;;;2.00;;
42364;SDS011;28498;54.400;18.566;2023-05-19T15:03:19;5.78;;;2.38;;
42364;SDS011;28498;54.400;18.566;2023-05-19T15:05:48;4.57;;;2.67;;
42364;SDS011;28498;54.400;18.566;2023-05-19T15:08:15;5.03;;;2.47;;
42364;SDS011;28498;54.400;18.566;2023-05-19T15:10:42;6.18;;;2.78;;
42364;SDS011;28498;54.400;18.566;2023-05-19T15:13:14;5.40;;;2.75;;
42364;SDS011;28498;54.400;18.566;2023-05-19T15:15:42;4.93;;;3.03;;
42364;SDS011;28498;54.400;18.566;2023-05-19T15:18:09;4.55;;;2.50;;
42364;SDS011;28498;54.400;18.566;2023-05-19T15:20:36;4.95;;;2.80;;
42364;SDS011;28498;54.400;18.566;2023-05-19T15:23:03;4.68;;;2.65;;
42364;SDS011;28498;54.400;18.566;2023-05-19T15:25:31;8.05;;;3.17;;
42364;SDS011;28498;54.400;18.566;2023-05-19T15:27:57;4.82;;;2.83;;
42364;SDS011;28498;54.400;18.566;2023-05-19T15:30:25;6.60;;;3.05;;
42364;SDS011;28498;54.400;18.566;2023-05-19T15:32:52;6.03;;;3.05;;
42364;SDS011;28498;54.400;18.566;2023-05-19T15:35:19;5.88;;;3.15;;
42364;SDS011;28498;54.400;18.566;2023-05-19T15:37:46;6.00;;;3.38;;
42364;SDS011;28498;54.400;18.566;2023-05-19T15:40:13;9.63;;;4.60;;